Terminal Aerodrome Forecast
Issued by NWS Anchorage, AK

Home | Current Version | Previous Version | Text Only | Print | Product List | Glossary On
Versions: 1 2 3 4 5 6 7 8 9 10 11 12 13 14 15 16 17 18 19 20 21 22 23 24 25 26 27 28 29 30 31 32 33 34 35 36 37 38 39 40 41 42 43 44 45 46 47 48 49 50
000
FTAK31 PANC 211409 AAB
TAFANC
TAF AMD
PANC 211409Z 2114/2218 VRB03KT P6SM BKN070
      TEMPO 2114/2116 -SHRA SCT045 BKN060
     FM212200 33007KT P6SM VCSH FEW045 SCT080
     FM220300 32010G17KT P6SM FEW080
     FM220700 35008KT P6SM SKC=

USA.gov is the U.S. government's official web portal to all federal, state and local government web resources and services.